Time;durP1;ratioP1;P1;durP2;ratioP2;P2;SDS_P1;SDS_P2;PMS_P1;PMS_P2;Temp;Humidity;BMP_temperature;BMP_pressure;BME280_temperature;BME280_humidity;BME280_pressure;Samples;Min_cycle;Max_cycle;Signal;HPM_P1;HPM_P2
2024/02/18 00:02:02;;;;;;;8.60;7.90;;;10.40;99.90;;;;;;5022114;28;20433;-81
2024/02/18 00:04:31;;;;;;;9.07;8.17;;;10.40;99.90;;;;;;5022751;28;20805;-80
2024/02/18 00:07:00;;;;;;;9.30;8.57;;;10.40;99.90;;;;;;5020537;28;20468;-80
2024/02/18 00:09:29;;;;;;;16.23;8.00;;;10.40;99.90;;;;;;5005531;28;21039;-80
2024/02/18 00:11:59;;;;;;;7.77;6.93;;;10.40;99.90;;;;;;5020838;28;20457;-80
2024/02/18 00:14:27;;;;;;;8.90;8.10;;;10.40;99.90;;;;;;5021771;28;20449;-79
2024/02/18 00:16:56;;;;;;;8.43;7.63;;;10.40;99.90;;;;;;5020188;28;20533;-80
2024/02/18 00:19:24;;;;;;;10.30;7.90;;;10.50;99.90;;;;;;5017318;28;20564;-81
2024/02/18 00:21:52;;;;;;;8.10;7.30;;;10.50;99.90;;;;;;5020350;28;20531;-80
2024/02/18 00:24:21;;;;;;;7.70;7.03;;;10.50;99.90;;;;;;5020050;28;20457;-80
2024/02/18 00:26:50;;;;;;;8.73;7.93;;;10.50;99.90;;;;;;5019611;28;20452;-80
2024/02/18 00:29:27;;;;;;;7.73;6.93;;;10.60;99.90;;;;;;5021185;28;20500;-79
2024/02/18 00:31:55;;;;;;;9.17;8.40;;;10.60;99.90;;;;;;5019462;28;20449;-79
2024/02/18 00:34:24;;;;;;;7.50;6.90;;;10.50;99.90;;;;;;5017600;28;20457;-80
2024/02/18 00:36:53;;;;;;;7.20;6.57;;;10.50;99.90;;;;;;5021548;28;20484;-79
2024/02/18 00:39:21;;;;;;;7.50;6.80;;;10.50;99.90;;;;;;5019661;28;20480;-81
2024/02/18 00:41:49;;;;;;;8.00;7.40;;;10.50;99.90;;;;;;5019172;28;20457;-80
2024/02/18 00:44:19;;;;;;;8.63;6.93;;;10.60;99.90;;;;;;5023855;28;20535;-80
2024/02/18 00:46:49;;;;;;;7.40;6.83;;;10.50;99.90;;;;;;5025130;28;20476;-80
2024/02/18 00:49:33;;;;;;;7.83;7.03;;;10.30;99.90;;;;;;5018916;28;20507;-79
2024/02/18 00:52:03;;;;;;;8.50;7.67;;;10.40;99.90;;;;;;5016803;28;20967;-79
2024/02/18 00:54:31;;;;;;;11.43;8.53;;;10.50;99.90;;;;;;5018339;28;20460;-81
2024/02/18 00:57:00;;;;;;;8.53;7.23;;;10.40;99.90;;;;;;5018114;28;20442;-79
2024/02/18 00:59:28;;;;;;;9.03;7.40;;;10.50;99.90;;;;;;5019566;28;20516;-80
2024/02/18 01:01:57;;;;;;;8.20;7.50;;;10.50;99.90;;;;;;5018508;28;20580;-80
2024/02/18 01:04:25;;;;;;;8.57;7.77;;;10.50;99.90;;;;;;5024742;28;20548;-82
2024/02/18 01:06:54;;;;;;;9.13;7.37;;;10.40;99.90;;;;;;5021247;28;20464;-80
2024/02/18 01:09:22;;;;;;;7.50;6.93;;;10.50;99.90;;;;;;5022031;28;20473;-81
2024/02/18 01:11:51;;;;;;;8.20;6.93;;;10.50;99.90;;;;;;5026062;28;20537;-81
2024/02/18 01:14:19;;;;;;;10.87;8.43;;;10.60;99.90;;;;;;5017922;28;20449;-79
2024/02/18 01:16:47;;;;;;;7.63;6.90;;;10.40;99.90;;;;;;5021995;28;20490;-78
2024/02/18 01:19:17;;;;;;;8.57;7.77;;;10.30;99.90;;;;;;5021246;28;20509;-79
2024/02/18 01:21:46;;;;;;;9.70;7.13;;;10.30;99.90;;;;;;5020186;28;20480;-79
2024/02/18 01:24:14;;;;;;;8.70;7.87;;;10.30;1.00;;;;;;5018852;28;20467;-79
2024/02/18 01:26:42;;;;;;;7.93;7.27;;;10.40;1.00;;;;;;5020811;28;20566;-79
2024/02/18 01:29:10;;;;;;;9.50;8.70;;;10.50;1.00;;;;;;5019729;28;20520;-80
2024/02/18 01:31:38;;;;;;;9.30;8.50;;;10.60;99.90;;;;;;5021310;28;20520;-81
2024/02/18 01:34:07;;;;;;;9.10;8.20;;;10.50;99.90;;;;;;5020320;28;20564;-83
2024/02/18 01:36:37;;;;;;;9.43;8.60;;;10.60;99.90;;;;;;5019534;28;20974;-80
2024/02/18 01:39:05;;;;;;;9.47;8.50;;;10.50;99.90;;;;;;5018408;28;20576;-79
2024/02/18 01:41:33;;;;;;;12.33;9.10;;;10.50;99.90;;;;;;5019954;28;20465;-79
2024/02/18 01:44:01;;;;;;;8.47;7.77;;;10.40;99.90;;;;;;5017405;28;20464;-80
2024/02/18 01:46:30;;;;;;;7.73;7.13;;;10.40;99.90;;;;;;5020262;28;20553;-79
2024/02/18 01:48:58;;;;;;;8.80;8.10;;;10.50;99.90;;;;;;5019702;28;20467;-79
2024/02/18 01:51:26;;;;;;;9.10;8.17;;;10.40;99.90;;;;;;5019786;28;20453;-80
2024/02/18 01:53:57;;;;;;;9.80;8.80;;;10.20;99.90;;;;;;5019772;28;20445;-81
2024/02/18 01:56:25;;;;;;;10.17;8.07;;;10.20;1.00;;;;;;5019354;28;20445;-81
2024/02/18 01:58:53;;;;;;;8.87;8.07;;;10.20;1.00;;;;;;5017032;28;20457;-81
2024/02/18 02:01:22;;;;;;;8.07;7.33;;;10.30;1.00;;;;;;5018878;28;20473;-80
2024/02/18 02:03:52;;;;;;;8.40;7.60;;;10.30;1.00;;;;;;5015973;28;20457;-80
2024/02/18 02:06:22;;;;;;;9.00;7.90;;;10.30;1.00;;;;;;5020151;28;20461;-80
2024/02/18 02:08:51;;;;;;;8.10;7.30;;;10.20;1.00;;;;;;5022563;28;20466;-80
2024/02/18 02:11:20;;;;;;;7.37;6.77;;;10.10;1.00;;;;;;5017089;28;20475;-80
2024/02/18 02:13:49;;;;;;;8.30;7.60;;;10.10;1.00;;;;;;5019336;28;20445;-80
2024/02/18 02:16:17;;;;;;;7.43;6.83;;;10.20;1.00;;;;;;5019391;28;20483;-79
2024/02/18 02:18:46;;;;;;;8.23;7.37;;;10.20;1.00;;;;;;5017447;28;21819;-80
2024/02/18 02:21:14;;;;;;;7.27;6.57;;;10.20;1.00;;;;;;5017979;28;20527;-82
2024/02/18 02:23:42;;;;;;;7.20;6.50;;;10.20;1.00;;;;;;5020735;28;20484;-81
2024/02/18 02:26:13;;;;;;;8.40;7.63;;;10.20;1.00;;;;;;5021324;28;20950;-81
2024/02/18 02:28:48;;;;;;;8.03;7.33;;;10.20;1.00;;;;;;5019975;28;20460;-79
2024/02/18 02:31:18;;;;;;;6.63;6.17;;;10.30;1.00;;;;;;5019713;28;20488;-82
2024/02/18 02:33:46;;;;;;;8.40;6.07;;;10.20;1.00;;;;;;5018292;28;20579;-80
2024/02/18 02:36:14;;;;;;;8.20;7.03;;;10.20;1.00;;;;;;5021499;28;20460;-81
2024/02/18 02:38:43;;;;;;;6.87;6.37;;;10.20;1.00;;;;;;5019929;28;20466;-81
2024/02/18 02:41:11;;;;;;;5.97;5.43;;;10.20;1.00;;;;;;5022568;28;20495;-80
2024/02/18 02:43:39;;;;;;;10.33;6.70;;;10.20;1.00;;;;;;5023309;28;20452;-80
2024/02/18 02:46:07;;;;;;;6.27;5.83;;;10.20;1.00;;;;;;5022292;28;20460;-81
2024/02/18 02:48:37;;;;;;;6.37;5.97;;;10.10;1.00;;;;;;5024905;28;20536;-81
2024/02/18 02:51:06;;;;;;;6.60;6.00;;;10.20;1.00;;;;;;5019647;28;21221;-80
2024/02/18 02:53:34;;;;;;;6.63;6.03;;;10.10;1.00;;;;;;5017036;28;20484;-80
2024/02/18 02:56:05;;;;;;;7.50;6.90;;;10.10;1.00;;;;;;5014110;28;20449;-80
2024/02/18 02:58:33;;;;;;;6.73;6.07;;;10.10;1.00;;;;;;5013879;28;20461;-81
2024/02/18 03:01:01;;;;;;;8.13;5.60;;;10.10;99.90;;;;;;5010773;28;20489;-80
2024/02/18 03:03:30;;;;;;;7.20;6.60;;;10.00;99.90;;;;;;5017987;28;20442;-79
2024/02/18 03:06:00;;;;;;;6.53;6.03;;;10.10;99.90;;;;;;5016898;28;20449;-80
2024/02/18 03:08:28;;;;;;;6.50;6.00;;;10.10;99.90;;;;;;5018406;28;20544;-80
2024/02/18 03:10:56;;;;;;;6.60;6.10;;;10.00;99.90;;;;;;5021545;28;20489;-80
2024/02/18 03:13:24;;;;;;;6.47;6.00;;;10.00;99.90;;;;;;5019297;28;20461;-80
2024/02/18 03:15:53;;;;;;;6.87;6.30;;;9.80;99.90;;;;;;5016214;28;20468;-80
2024/02/18 03:18:21;;;;;;;6.80;6.20;;;9.70;99.90;;;;;;5019362;28;20460;-79
2024/02/18 03:20:50;;;;;;;7.17;6.57;;;9.70;1.00;;;;;;5016321;28;20495;-79
2024/02/18 03:23:19;;;;;;;6.23;5.80;;;9.70;1.00;;;;;;5019046;28;20478;-81
2024/02/18 03:25:48;;;;;;;6.70;6.10;;;9.60;1.00;;;;;;5017833;28;20464;-80
2024/02/18 03:28:16;;;;;;;8.13;5.83;;;9.60;1.00;;;;;;5018477;28;20467;-81
2024/02/18 03:30:50;;;;;;;6.33;5.80;;;9.60;1.00;;;;;;5016284;28;21277;-80
2024/02/18 03:33:19;;;;;;;6.73;6.07;;;9.50;1.00;;;;;;5015920;28;20549;-79
2024/02/18 03:35:47;;;;;;;7.13;6.67;;;9.60;1.00;;;;;;5017899;28;20464;-81
2024/02/18 03:38:15;;;;;;;7.70;6.90;;;9.60;1.00;;;;;;5018722;28;20918;-79
2024/02/18 03:40:45;;;;;;;7.10;6.50;;;9.60;1.00;;;;;;5019633;28;20488;-79
2024/02/18 03:43:13;;;;;;;7.17;6.67;;;9.60;1.00;;;;;;5020680;28;20473;-80
2024/02/18 03:45:42;;;;;;;6.20;5.63;;;9.50;99.90;;;;;;5003272;28;20450;-80
2024/02/18 03:48:10;;;;;;;8.40;6.40;;;9.50;99.90;;;;;;5018283;28;20453;-79
2024/02/18 03:50:38;;;;;;;6.97;6.47;;;9.40;99.90;;;;;;5016386;28;21010;-80
2024/02/18 03:53:06;;;;;;;6.50;5.60;;;9.20;99.90;;;;;;5019136;28;20449;-80
2024/02/18 03:55:34;;;;;;;6.83;6.40;;;9.30;99.90;;;;;;5020311;28;20990;-80
2024/02/18 03:58:04;;;;;;;10.60;6.97;;;9.20;99.90;;;;;;5018764;28;20472;-79
2024/02/18 04:00:32;;;;;;;7.37;6.83;;;9.20;99.90;;;;;;5023646;28;20480;-80
2024/02/18 04:03:01;;;;;;;5.87;5.47;;;9.30;99.90;;;;;;5025975;28;20566;-79
2024/02/18 04:05:30;;;;;;;8.57;6.43;;;9.30;99.90;;;;;;5024111;28;20475;-80
2024/02/18 04:07:58;;;;;;;6.10;5.50;;;9.30;99.90;;;;;;5023343;28;20453;-80
2024/02/18 04:10:26;;;;;;;6.47;5.83;;;9.10;99.90;;;;;;5021086;28;20480;-82
2024/02/18 04:12:54;;;;;;;6.90;6.30;;;9.10;99.90;;;;;;5020757;28;20456;-80
2024/02/18 04:15:24;;;;;;;6.53;5.80;;;9.10;99.90;;;;;;5019606;28;20454;-80
2024/02/18 04:17:54;;;;;;;6.47;5.77;;;9.10;99.90;;;;;;5018709;28;20455;-80
2024/02/18 04:20:22;;;;;;;7.10;6.50;;;9.00;99.90;;;;;;5023615;28;20577;-81
2024/02/18 04:22:51;;;;;;;6.40;5.90;;;8.90;99.90;;;;;;5021066;28;20473;-79
2024/02/18 04:25:19;;;;;;;6.63;6.13;;;8.90;99.90;;;;;;5039426;28;20537;-78
2024/02/18 04:27:47;;;;;;;6.97;6.30;;;8.90;1.00;;;;;;5019759;28;20513;-78
2024/02/18 04:30:16;;;;;;;7.23;6.53;;;9.00;1.00;;;;;;5020441;28;20468;-78
2024/02/18 04:32:45;;;;;;;6.80;6.20;;;8.90;1.00;;;;;;5018102;28;20448;-78
2024/02/18 04:35:13;;;;;;;6.63;6.10;;;8.90;1.00;;;;;;5017505;28;20481;-78
2024/02/18 04:37:42;;;;;;;7.30;6.60;;;8.90;1.00;;;;;;5016060;28;20561;-79
2024/02/18 04:40:12;;;;;;;6.83;6.13;;;9.00;1.00;;;;;;5021307;28;20469;-79
2024/02/18 04:42:40;;;;;;;6.73;6.20;;;8.90;1.00;;;;;;5020183;28;20477;-80
2024/02/18 04:45:09;;;;;;;7.27;6.43;;;9.00;99.90;;;;;;5021706;28;20464;-80
2024/02/18 04:47:37;;;;;;;6.90;6.40;;;8.90;1.00;;;;;;5021053;28;20445;-79
2024/02/18 04:50:08;;;;;;;6.53;5.93;;;9.00;1.00;;;;;;5018674;28;20867;-81
2024/02/18 04:52:36;;;;;;;8.47;6.60;;;8.90;99.90;;;;;;5020193;28;20983;-81
2024/02/18 04:55:05;;;;;;;6.57;6.07;;;8.90;99.90;;;;;;5017798;28;20647;-79
2024/02/18 04:57:34;;;;;;;6.87;6.33;;;8.90;99.90;;;;;;5008739;28;20450;-79
2024/02/18 05:00:05;;;;;;;7.00;6.50;;;9.00;1.00;;;;;;5020714;28;20472;-82
2024/02/18 05:02:33;;;;;;;7.20;6.53;;;9.00;1.00;;;;;;5019632;28;20481;-80
2024/02/18 05:05:01;;;;;;;6.63;6.03;;;9.10;99.90;;;;;;5019571;28;20457;-81
2024/02/18 05:07:31;;;;;;;6.93;6.23;;;9.00;99.90;;;;;;5021313;28;20453;-79
2024/02/18 05:10:00;;;;;;;9.07;7.13;;;8.90;99.90;;;;;;5019772;28;20477;-80
2024/02/18 05:12:29;;;;;;;6.57;5.97;;;8.80;1.00;;;;;;5017348;28;20448;-81
2024/02/18 05:14:58;;;;;;;7.83;6.03;;;8.80;1.00;;;;;;5017782;28;20467;-81
2024/02/18 05:17:26;;;;;;;6.57;5.87;;;8.90;1.00;;;;;;5017159;28;20537;-80
2024/02/18 05:19:54;;;;;;;6.40;5.80;;;8.90;99.90;;;;;;5018558;28;20543;-80
2024/02/18 05:22:24;;;;;;;7.83;6.70;;;8.80;99.90;;;;;;5008273;28;20480;-80
2024/02/18 05:24:53;;;;;;;6.80;6.20;;;8.80;99.90;;;;;;5018440;28;20504;-80
2024/02/18 05:27:22;;;;;;;6.40;5.90;;;8.80;99.90;;;;;;5019542;28;20449;-80
2024/02/18 05:29:50;;;;;;;6.70;6.20;;;8.80;99.90;;;;;;5018845;28;21080;-81
2024/02/18 05:32:19;;;;;;;6.80;6.20;;;8.70;99.90;;;;;;5016401;28;20515;-79
2024/02/18 05:34:47;;;;;;;7.20;6.60;;;8.60;1.00;;;;;;5019214;28;21815;-81
2024/02/18 05:37:15;;;;;;;6.73;6.23;;;8.70;1.00;;;;;;5017808;28;20468;-79
2024/02/18 05:39:43;;;;;;;8.30;6.67;;;8.60;1.00;;;;;;5016681;28;20480;-80
2024/02/18 05:42:13;;;;;;;6.87;6.23;;;8.60;1.00;;;;;;5021089;28;20537;-80
2024/02/18 05:44:42;;;;;;;7.87;7.17;;;8.60;1.00;;;;;;5023401;28;20437;-79
2024/02/18 05:47:10;;;;;;;8.57;7.30;;;8.60;1.00;;;;;;5014130;28;20445;-80
2024/02/18 05:49:39;;;;;;;8.53;7.73;;;8.60;1.00;;;;;;5018716;28;20552;-79
2024/02/18 05:52:11;;;;;;;6.90;6.30;;;8.60;99.90;;;;;;5017342;28;21317;-79
2024/02/18 05:54:40;;;;;;;7.63;6.20;;;8.60;99.90;;;;;;5018797;28;20454;-78
2024/02/18 05:57:08;;;;;;;7.13;5.57;;;8.50;99.90;;;;;;5013467;28;20441;-79
2024/02/18 05:59:37;;;;;;;6.23;5.63;;;8.50;1.00;;;;;;5010822;28;20556;-80
2024/02/18 06:02:06;;;;;;;7.90;7.10;;;8.60;1.00;;;;;;5018973;28;21036;-81
2024/02/18 06:04:34;;;;;;;7.13;6.53;;;8.50;99.90;;;;;;5015919;28;20477;-79
2024/02/18 06:07:02;;;;;;;6.73;6.23;;;8.50;99.90;;;;;;5018593;28;20460;-79
2024/02/18 06:09:30;;;;;;;6.20;5.70;;;8.50;99.90;;;;;;5015245;28;20478;-78
2024/02/18 06:12:00;;;;;;;6.30;5.80;;;8.60;99.90;;;;;;4999606;28;20461;-80
2024/02/18 06:14:29;;;;;;;6.87;6.33;;;8.50;99.90;;;;;;5019018;28;20527;-79
2024/02/18 06:16:58;;;;;;;7.47;6.83;;;8.50;1.00;;;;;;5017942;28;20583;-80
2024/02/18 06:19:26;;;;;;;7.07;6.57;;;8.50;1.00;;;;;;5017759;28;20527;-78
2024/02/18 06:21:55;;;;;;;6.93;6.33;;;8.50;1.00;;;;;;5018459;28;20454;-79
2024/02/18 06:24:27;;;;;;;7.17;6.53;;;8.50;1.00;;;;;;5017088;28;20556;-80
2024/02/18 06:26:58;;;;;;;7.37;6.70;;;8.50;1.00;;;;;;5019794;28;20522;-79
2024/02/18 06:29:26;;;;;;;7.73;7.13;;;8.50;1.00;;;;;;5012259;28;20481;-81
2024/02/18 06:31:54;;;;;;;6.47;5.97;;;8.60;1.00;;;;;;5018743;28;20461;-79
2024/02/18 06:34:24;;;;;;;6.80;6.20;;;8.60;1.00;;;;;;5016111;28;20464;-80
2024/02/18 06:36:52;;;;;;;6.87;6.17;;;8.60;1.00;;;;;;5019031;28;20511;-80
2024/02/18 06:39:21;;;;;;;7.13;6.23;;;8.60;1.00;;;;;;5016994;28;20449;-80
2024/02/18 06:41:53;;;;;;;9.40;8.40;;;8.60;1.00;;;;;;5019166;28;20547;-81
2024/02/18 06:44:22;;;;;;;7.87;7.17;;;8.70;1.00;;;;;;5018607;28;20516;-80
2024/02/18 06:46:51;;;;;;;7.87;7.20;;;8.60;1.00;;;;;;5014909;28;20461;-82
2024/02/18 06:49:20;;;;;;;8.70;7.97;;;8.50;1.00;;;;;;5017178;28;21010;-79
2024/02/18 06:51:49;;;;;;;9.13;8.33;;;8.50;1.00;;;;;;5017233;28;20510;-79
2024/02/18 06:54:17;;;;;;;7.33;6.63;;;8.60;1.00;;;;;;5018784;28;20813;-79
2024/02/18 06:56:46;;;;;;;8.00;7.20;;;8.70;1.00;;;;;;5019637;28;20453;-79
2024/02/18 06:59:15;;;;;;;7.77;7.07;;;8.70;1.00;;;;;;5018241;28;20472;-80
2024/02/18 07:01:44;;;;;;;7.50;6.80;;;8.60;1.00;;;;;;5016550;28;20499;-79
2024/02/18 07:04:12;;;;;;;7.93;7.23;;;8.70;1.00;;;;;;5012629;28;20465;-80
2024/02/18 07:06:41;;;;;;;8.93;7.40;;;8.70;1.00;;;;;;5014729;28;20465;-80
2024/02/18 07:09:10;;;;;;;8.83;7.93;;;8.60;1.00;;;;;;5016201;28;20484;-79
2024/02/18 07:11:39;;;;;;;8.00;7.23;;;8.60;1.00;;;;;;5017841;28;21169;-79
2024/02/18 07:14:07;;;;;;;7.10;6.60;;;8.70;1.00;;;;;;5017255;28;20552;-78
2024/02/18 07:16:35;;;;;;;6.90;6.30;;;8.80;1.00;;;;;;5014379;28;20456;-79
2024/02/18 07:19:03;;;;;;;6.97;6.30;;;8.80;1.00;;;;;;5017510;28;20887;-81
2024/02/18 07:21:32;;;;;;;8.17;7.17;;;8.90;1.00;;;;;;5018920;28;20488;-79
2024/02/18 07:24:00;;;;;;;8.90;8.00;;;8.90;1.00;;;;;;5018705;28;20495;-80
2024/02/18 07:26:30;;;;;;;7.53;6.80;;;8.90;1.00;;;;;;5017270;28;20927;-79
2024/02/18 07:28:58;;;;;;;7.50;6.80;;;9.00;1.00;;;;;;5015064;28;20458;-78
2024/02/18 07:31:30;;;;;;;7.57;6.97;;;9.00;1.00;;;;;;5023688;28;20981;-78
2024/02/18 07:33:58;;;;;;;7.93;7.27;;;9.20;1.00;;;;;;5021830;28;20453;-77
2024/02/18 07:36:27;;;;;;;8.20;7.40;;;9.40;1.00;;;;;;5019776;28;20441;-78
2024/02/18 07:38:56;;;;;;;9.30;7.53;;;9.60;1.00;;;;;;5017322;28;20456;-79
2024/02/18 07:41:25;;;;;;;9.60;8.80;;;9.70;1.00;;;;;;5021992;28;20478;-80
2024/02/18 07:43:54;;;;;;;8.67;7.87;;;10.00;1.00;;;;;;5020983;28;20865;-79
2024/02/18 07:46:22;;;;;;;8.77;8.07;;;10.20;1.00;;;;;;5020892;28;20458;-79
2024/02/18 07:48:51;;;;;;;12.97;9.57;;;10.40;1.00;;;;;;5017967;28;20441;-80
2024/02/18 07:51:19;;;;;;;8.83;7.97;;;10.40;1.00;;;;;;5020066;28;20484;-78
2024/02/18 07:53:47;;;;;;;10.93;8.83;;;10.50;1.00;;;;;;5018669;28;20448;-80
2024/02/18 07:56:15;;;;;;;10.77;9.77;;;10.70;1.00;;;;;;5017373;28;20464;-79
2024/02/18 07:58:44;;;;;;;9.90;8.90;;;10.80;1.00;;;;;;5016339;28;21383;-79
2024/02/18 08:01:14;;;;;;;10.73;9.77;;;10.90;1.00;;;;;;5018680;28;20484;-78
2024/02/18 08:03:42;;;;;;;10.00;9.00;;;11.00;99.90;;;;;;5009673;28;20890;-78
2024/02/18 08:06:10;;;;;;;11.05;9.95;;;11.10;99.90;;;;;;5014788;28;20544;-79
2024/02/18 08:08:38;;;;;;;9.10;8.30;;;11.20;99.90;;;;;;5018493;28;20206;-78
2024/02/18 08:11:07;;;;;;;10.70;9.80;;;11.30;99.90;;;;;;5019061;28;20471;-80
2024/02/18 08:13:35;;;;;;;10.23;8.97;;;11.40;99.90;;;;;;5019347;28;20457;-79
2024/02/18 08:16:03;;;;;;;10.00;9.20;;;11.40;99.90;;;;;;5019544;28;20462;-80
2024/02/18 08:18:33;;;;;;;9.50;8.70;;;11.50;99.90;;;;;;5018701;28;20456;-78
2024/02/18 08:21:02;;;;;;;11.03;9.23;;;11.60;99.90;;;;;;5011413;28;20560;-80
2024/02/18 08:23:30;;;;;;;9.60;8.70;;;11.80;99.90;;;;;;5016986;28;20488;-81
2024/02/18 08:25:59;;;;;;;11.10;9.30;;;11.90;99.90;;;;;;5017488;28;20508;-80
2024/02/18 08:28:27;;;;;;;11.07;10.00;;;12.20;99.90;;;;;;5017014;28;20449;-78
2024/02/18 08:30:56;;;;;;;9.70;8.80;;;12.40;99.90;;;;;;5017466;28;21351;-79
2024/02/18 08:33:24;;;;;;;9.07;8.20;;;12.60;99.90;;;;;;5017524;28;20493;-79
2024/02/18 08:35:54;;;;;;;9.80;8.77;;;13.00;99.90;;;;;;5015297;28;20446;-78
2024/02/18 08:38:23;;;;;;;9.27;8.50;;;13.30;99.90;;;;;;5019052;28;20468;-79
2024/02/18 08:40:51;;;;;;;9.73;8.90;;;13.50;99.90;;;;;;5015821;28;20468;-81
2024/02/18 08:43:19;;;;;;;8.60;7.90;;;13.60;99.90;;;;;;5018522;28;20588;-79
2024/02/18 08:45:47;;;;;;;9.97;9.07;;;13.60;99.90;;;;;;5018206;28;20478;-80
2024/02/18 08:48:15;;;;;;;8.70;7.90;;;13.50;99.90;;;;;;5016884;28;20967;-79
2024/02/18 08:50:43;;;;;;;8.37;7.77;;;13.60;99.90;;;;;;5020301;28;20500;-78
2024/02/18 08:53:13;;;;;;;7.40;6.80;;;13.90;99.90;;;;;;5017484;28;20561;-79
2024/02/18 08:55:41;;;;;;;8.67;7.83;;;14.00;99.90;;;;;;5019183;28;20454;-80
2024/02/18 08:58:10;;;;;;;8.70;7.87;;;14.30;99.90;;;;;;5016193;28;20520;-79
2024/02/18 09:00:38;;;;;;;11.53;8.63;;;14.50;99.90;;;;;;5017410;28;20469;-79
2024/02/18 09:03:06;;;;;;;10.30;9.13;;;14.40;99.90;;;;;;5018370;28;20450;-79
2024/02/18 09:05:34;;;;;;;9.50;8.63;;;14.20;99.90;;;;;;5017957;28;20508;-77
2024/02/18 09:08:02;;;;;;;7.23;6.60;;;14.20;99.90;;;;;;5018393;28;20482;-80
2024/02/18 09:10:33;;;;;;;8.40;7.63;;;14.40;99.90;;;;;;5018251;28;20483;-82
2024/02/18 09:13:01;;;;;;;8.80;7.90;;;14.40;99.90;;;;;;5014887;28;20490;-79
2024/02/18 09:15:30;;;;;;;8.00;7.33;;;14.40;99.90;;;;;;5021337;28;20445;-82
2024/02/18 09:17:58;;;;;;;12.10;7.90;;;14.70;99.90;;;;;;5018749;28;21037;-80
2024/02/18 09:20:27;;;;;;;7.30;6.70;;;15.20;99.90;;;;;;5018666;28;20473;-80
2024/02/18 09:22:56;;;;;;;7.67;6.80;;;15.30;99.90;;;;;;5018264;28;20562;-80
2024/02/18 09:25:24;;;;;;;8.27;7.73;;;15.40;99.90;;;;;;5017507;28;20500;-82
2024/02/18 09:27:54;;;;;;;7.87;7.17;;;15.20;99.90;;;;;;5001227;28;20556;-80
2024/02/18 09:30:22;;;;;;;7.93;7.30;;;14.90;99.90;;;;;;5018425;28;20501;-79
2024/02/18 09:32:51;;;;;;;7.43;6.83;;;14.80;99.90;;;;;;5017120;28;20493;-81
2024/02/18 09:35:20;;;;;;;7.30;6.70;;;14.60;99.90;;;;;;5016575;28;20449;-79
2024/02/18 09:37:49;;;;;;;7.40;6.80;;;14.70;99.90;;;;;;5015018;28;21880;-80
2024/02/18 09:40:17;;;;;;;6.77;6.17;;;15.20;99.90;;;;;;5016410;28;20508;-79
2024/02/18 09:42:48;;;;;;;7.47;6.87;;;15.80;99.90;;;;;;5000127;28;20450;-79
2024/02/18 09:45:21;;;;;;;7.03;6.53;;;16.10;99.90;;;;;;5016841;28;20539;-79
2024/02/18 09:47:50;;;;;;;7.20;6.70;;;16.50;99.90;;;;;;5014374;28;20472;-80
2024/02/18 09:50:19;;;;;;;8.17;7.33;;;17.00;99.90;;;;;;5015298;28;20575;-80
2024/02/18 09:52:48;;;;;;;7.07;6.63;;;17.30;99.90;;;;;;5018490;28;20464;-79
2024/02/18 09:55:17;;;;;;;7.97;7.37;;;17.20;99.90;;;;;;5017082;28;20450;-80
2024/02/18 09:57:45;;;;;;;7.27;6.60;;;16.70;99.90;;;;;;5016738;28;21134;-80
2024/02/18 10:00:14;;;;;;;7.50;6.90;;;16.60;99.90;;;;;;5017450;28;20480;-81
2024/02/18 10:02:44;;;;;;;6.87;6.27;;;16.60;99.90;;;;;;4999824;28;20465;-79
2024/02/18 10:05:12;;;;;;;8.97;7.07;;;16.60;99.90;;;;;;5018509;28;21976;-78
2024/02/18 10:07:40;;;;;;;6.97;6.53;;;16.50;99.90;;;;;;5017039;28;20452;-82
2024/02/18 10:10:09;;;;;;;7.67;6.90;;;16.40;99.90;;;;;;5015216;28;20477;-80
2024/02/18 10:12:38;;;;;;;7.23;6.50;;;16.50;99.90;;;;;;5014261;28;20450;-81
2024/02/18 10:15:07;;;;;;;6.40;5.90;;;16.40;99.90;;;;;;5017233;28;20457;-80
2024/02/18 10:17:35;;;;;;;6.53;5.93;;;16.20;99.90;;;;;;5017414;28;20505;-81
2024/02/18 10:20:06;;;;;;;5.53;5.13;;;16.10;99.90;;;;;;5018073;28;20373;-80
2024/02/18 10:22:35;;;;;;;5.93;5.53;;;16.10;99.90;;;;;;5016837;28;20499;-79
2024/02/18 10:25:04;;;;;;;5.60;5.10;;;16.30;99.90;;;;;;5017083;28;20473;-79
2024/02/18 10:27:37;;;;;;;5.47;4.97;;;16.40;99.90;;;;;;5014506;28;20523;-80
2024/02/18 10:30:07;;;;;;;6.20;5.80;;;16.20;99.90;;;;;;5013946;28;20487;-81
2024/02/18 10:32:35;;;;;;;5.77;5.37;;;15.80;99.90;;;;;;5015956;28;21300;-81
2024/02/18 10:35:05;;;;;;;6.33;5.83;;;15.60;99.90;;;;;;4998627;28;20476;-79
2024/02/18 10:37:53;;;;;;;5.73;5.23;;;15.40;99.90;;;;;;5073864;27;20597;-79
2024/02/18 10:40:28;;;;;;;6.20;5.20;;;15.40;99.90;;;;;;5072623;28;20471;-80
2024/02/18 10:43:00;;;;;;;4.50;4.20;;;15.30;99.90;;;;;;5074714;28;20515;-81
2024/02/18 10:45:29;;;;;;;5.23;4.83;;;15.40;99.90;;;;;;5072362;28;20205;-79
2024/02/18 10:48:03;;;;;;;5.30;4.87;;;15.30;99.90;;;;;;5072270;28;20462;-81
2024/02/18 10:50:36;;;;;;;6.20;5.60;;;15.20;99.90;;;;;;5072937;28;20465;-82
2024/02/18 10:53:16;;;;;;;5.57;5.23;;;15.00;99.90;;;;;;5071914;28;20448;-79
2024/02/18 10:55:50;;;;;;;5.20;4.47;;;14.80;99.90;;;;;;5074210;28;20814;-79
2024/02/18 10:58:27;;;;;;;4.80;4.40;;;14.70;99.90;;;;;;5066888;28;20458;-80
2024/02/18 11:00:58;;;;;;;7.33;5.40;;;14.70;99.90;;;;;;5068838;28;20496;-79
2024/02/18 11:03:36;;;;;;;6.27;5.67;;;14.50;99.90;;;;;;5073792;28;20971;-80
2024/02/18 11:06:05;;;;;;;4.80;4.50;;;14.50;99.90;;;;;;5072940;28;20454;-81
2024/02/18 11:08:39;;;;;;;5.20;4.80;;;14.60;99.90;;;;;;5074080;28;20993;-79
2024/02/18 11:11:09;;;;;;;4.23;3.93;;;14.50;99.90;;;;;;5072716;28;24590;-79
2024/02/18 11:13:38;;;;;;;4.50;4.10;;;14.60;99.90;;;;;;5070796;28;20513;-80
2024/02/18 11:16:09;;;;;;;4.87;4.50;;;14.60;99.90;;;;;;5072048;28;20481;-80
2024/02/18 11:18:38;;;;;;;4.80;4.30;;;14.60;99.90;;;;;;5072136;28;20446;-81
2024/02/18 11:21:07;;;;;;;4.83;4.53;;;14.60;99.90;;;;;;5070993;28;20467;-80
2024/02/18 11:23:37;;;;;;;4.57;4.27;;;14.60;99.90;;;;;;5071054;28;20458;-79
2024/02/18 11:26:07;;;;;;;5.60;5.20;;;14.70;99.90;;;;;;5070707;28;20438;-82
2024/02/18 11:28:35;;;;;;;6.00;5.27;;;14.80;99.90;;;;;;5071881;28;20996;-79
2024/02/18 11:31:04;;;;;;;5.83;5.37;;;15.00;99.90;;;;;;5074855;28;20485;-82
2024/02/18 11:33:32;;;;;;;5.80;5.27;;;15.30;99.90;;;;;;5073839;28;21235;-80
2024/02/18 11:36:11;;;;;;;6.30;4.90;;;15.50;99.90;;;;;;5071349;28;20932;-81
2024/02/18 11:38:45;;;;;;;5.97;4.47;;;15.40;99.90;;;;;;5074209;28;20466;-80
2024/02/18 11:41:18;;;;;;;4.97;4.63;;;15.50;99.90;;;;;;5074920;28;20477;-79
2024/02/18 11:43:52;;;;;;;4.90;4.60;;;15.30;99.90;;;;;;5072103;28;20520;-83
2024/02/18 11:46:23;;;;;;;4.30;4.00;;;15.20;99.90;;;;;;5070454;28;20978;-80
2024/02/18 11:48:52;;;;;;;4.50;4.20;;;15.00;99.90;;;;;;5059037;28;20466;-80
2024/02/18 11:51:21;;;;;;;5.00;4.50;;;14.90;99.90;;;;;;5050320;28;20486;-81
2024/02/18 11:53:51;;;;;;;5.70;4.87;;;14.80;99.90;;;;;;5059003;28;20464;-79
2024/02/18 11:56:19;;;;;;;5.23;4.83;;;14.70;99.90;;;;;;5057340;28;21354;-80
2024/02/18 11:58:48;;;;;;;10.63;9.13;;;14.70;99.90;;;;;;5058072;28;20444;-79
2024/02/18 12:01:18;;;;;;;5.47;5.07;;;14.60;99.90;;;;;;5061029;28;20525;-81
2024/02/18 12:03:46;;;;;;;5.90;5.50;;;14.70;99.90;;;;;;5056365;28;20450;-78
2024/02/18 12:06:15;;;;;;;5.93;5.40;;;14.70;99.90;;;;;;5056738;28;20858;-79
2024/02/18 12:08:43;;;;;;;5.30;4.90;;;14.50;99.90;;;;;;5059718;28;20960;-79
2024/02/18 12:11:14;;;;;;;7.83;6.00;;;14.50;99.90;;;;;;5057564;28;20479;-82
2024/02/18 12:13:42;;;;;;;6.20;5.70;;;14.40;99.90;;;;;;5055951;28;21179;-80
2024/02/18 12:16:10;;;;;;;6.83;6.03;;;14.30;99.90;;;;;;5058474;28;20813;-82
2024/02/18 12:18:39;;;;;;;9.53;7.10;;;14.40;99.90;;;;;;5055106;28;20451;-79
2024/02/18 12:21:12;;;;;;;7.60;6.80;;;14.40;99.90;;;;;;5057971;28;21019;-79
2024/02/18 12:23:42;;;;;;;7.50;6.90;;;14.40;99.90;;;;;;5058294;28;20463;-80
2024/02/18 12:26:12;;;;;;;7.73;6.97;;;14.40;99.90;;;;;;5057235;28;20604;-80
2024/02/18 12:28:42;;;;;;;9.70;8.77;;;14.50;99.90;;;;;;5055431;28;20530;-80
2024/02/18 12:31:11;;;;;;;9.13;8.20;;;14.50;99.90;;;;;;5053484;28;20748;-79
2024/02/18 12:33:39;;;;;;;10.53;9.53;;;14.40;99.90;;;;;;5053966;28;20452;-79
2024/02/18 12:36:09;;;;;;;10.23;8.07;;;14.40;99.90;;;;;;5056778;28;20463;-78
2024/02/18 12:38:37;;;;;;;9.53;7.43;;;14.30;99.90;;;;;;5051913;28;20473;-79
2024/02/18 12:41:08;;;;;;;8.87;8.03;;;14.40;99.90;;;;;;5057102;28;20489;-79
2024/02/18 12:43:36;;;;;;;7.30;6.60;;;14.30;99.90;;;;;;5056406;28;20447;-79
2024/02/18 12:46:26;;;;;;;7.03;6.43;;;14.40;99.90;;;;;;5056903;28;20455;-81
2024/02/18 12:48:58;;;;;;;7.00;6.33;;;14.40;99.90;;;;;;5060355;28;20535;-79
2024/02/18 12:51:27;;;;;;;7.20;6.50;;;14.40;99.90;;;;;;5059491;28;20574;-80
2024/02/18 12:53:57;;;;;;;5.97;5.50;;;14.40;99.90;;;;;;5058161;28;20471;-82
2024/02/18 12:56:25;;;;;;;6.03;5.53;;;14.30;99.90;;;;;;5058517;28;20446;-79
2024/02/18 12:58:54;;;;;;;6.83;6.27;;;14.30;99.90;;;;;;5055243;28;20551;-80
2024/02/18 13:01:22;;;;;;;5.50;5.20;;;14.30;99.90;;;;;;5057012;28;20478;-80
2024/02/18 13:03:52;;;;;;;6.00;5.40;;;14.30;99.90;;;;;;5056958;28;20452;-79